Time,TemperatureF,DewpointF,PressureIn,WindDirection,WindDirectionDegrees,WindSpeedMPH,WindSpeedGustMPH,Humidity,HourlyPrecipIn,Conditions,Clouds,dailyrainin,SoftwareType,DateUTC
2013-10-02 00:01:00,55.5,49.4,29.59,NW,306,0.0,0.0,80,0.00,,,0.00,WeatherCatV1.02B3,2013-10-02 07:01:00,
2013-10-02 00:06:00,55.8,49.4,29.59,West,265,0.0,0.0,79,0.00,,,0.00,WeatherCatV1.02B3,2013-10-02 07:06:00,
2013-10-02 00:11:00,55.7,49.3,29.59,West,265,0.0,0.0,79,0.00,,,0.00,WeatherCatV1.02B3,2013-10-02 07:11:00,
2013-10-02 00:16:00,55.6,49.2,29.59,West,265,0.0,0.0,79,0.00,,,0.00,WeatherCatV1.02B3,2013-10-02 07:16:00,
2013-10-02 00:21:00,55.5,49.1,29.59,West,265,0.0,0.0,79,0.00,,,0.00,WeatherCatV1.02B3,2013-10-02 07:21:00,
2013-10-02 00:26:00,55.3,48.9,29.59,West,265,0.0,0.0,79,0.00,,,0.00,WeatherCatV1.02B3,2013-10-02 07:26:00,
2013-10-02 00:31:00,55.2,48.8,29.59,West,265,0.0,0.0,79,0.00,,,0.00,WeatherCatV1.02B3,2013-10-02 07:31:00,
2013-10-02 00:36:00,55.1,48.7,29.59,West,265,0.0,0.0,79,0.00,,,0.00,WeatherCatV1.02B3,2013-10-02 07:36:00,
2013-10-02 00:41:00,55.0,48.6,29.59,West,265,0.0,0.0,79,0.00,,,0.00,WeatherCatV1.02B3,2013-10-02 07:41:00,
2013-10-02 00:46:00,54.9,48.8,29.59,West,265,0.0,0.0,80,0.00,,,0.00,WeatherCatV1.02B3,2013-10-02 07:46:00,
2013-10-02 00:51:00,54.8,48.7,29.59,West,265,0.0,0.0,80,0.00,,,0.00,WeatherCatV1.02B3,2013-10-02 07:51:00,
2013-10-02 00:56:00,54.6,48.2,29.59,West,265,0.0,0.0,79,0.00,,,0.00,WeatherCatV1.02B3,2013-10-02 07:56:00,
2013-10-02 01:01:00,54.6,48.2,29.59,West,265,0.0,0.0,79,0.00,,,0.00,WeatherCatV1.02B3,2013-10-02 08:01:00,
2013-10-02 01:06:00,54.4,48.4,29.59,West,265,0.0,0.0,80,0.00,,,0.00,WeatherCatV1.02B3,2013-10-02 08:06:00,
2013-10-02 01:11:00,54.3,48.3,29.59,West,267,0.0,0.0,80,0.00,,,0.00,WeatherCatV1.02B3,2013-10-02 08:11:00,
2013-10-02 01:16:00,54.2,48.2,29.59,West,267,0.0,0.0,80,0.00,,,0.00,WeatherCatV1.02B3,2013-10-02 08:16:00,
2013-10-02 01:21:00,54.1,48.4,29.59,NW,323,0.0,1.0,81,0.00,,,0.00,WeatherCatV1.02B3,2013-10-02 08:21:00,
2013-10-02 01:26:00,54.0,48.3,29.59,NW,323,0.0,0.0,81,0.00,,,0.00,WeatherCatV1.02B3,2013-10-02 08:26:00,
2013-10-02 01:31:00,53.9,48.2,29.59,NW,323,0.0,0.0,81,0.00,,,0.00,WeatherCatV1.02B3,2013-10-02 08:31:00,
2013-10-02 01:36:00,53.8,48.1,29.59,NW,323,0.0,0.0,81,0.00,,,0.00,WeatherCatV1.02B3,2013-10-02 08:36:00,
2013-10-02 01:41:00,53.6,47.9,29.59,NW,323,0.0,0.0,81,0.00,,,0.00,WeatherCatV1.02B3,2013-10-02 08:41:00,
2013-10-02 01:46:00,53.6,47.9,29.59,NW,323,0.0,0.0,81,0.00,,,0.00,WeatherCatV1.02B3,2013-10-02 08:46:00,
2013-10-02 01:51:00,53.5,47.8,29.59,NW,323,0.0,0.0,81,0.00,,,0.00,WeatherCatV1.02B3,2013-10-02 08:51:00,
2013-10-02 01:56:00,53.3,47.6,29.59,NNW,338,0.0,2.0,81,0.00,,,0.00,WeatherCatV1.02B3,2013-10-02 08:56:00,
2013-10-02 02:01:00,53.5,48.1,29.59,NE,43,0.0,2.0,82,0.00,,,0.00,WeatherCatV1.02B3,2013-10-02 09:01:00,
2013-10-02 02:06:00,53.5,48.1,29.59,NE,43,0.0,0.0,82,0.00,,,0.00,WeatherCatV1.02B3,2013-10-02 09:06:00,
2013-10-02 02:11:00,53.5,48.1,29.59,NE,43,0.0,0.0,82,0.00,,,0.00,WeatherCatV1.02B3,2013-10-02 09:11:00,
2013-10-02 02:16:00,53.4,48.0,29.59,NE,43,0.0,0.0,82,0.00,,,0.00,WeatherCatV1.02B3,2013-10-02 09:16:00,
2013-10-02 02:21:00,53.3,47.9,29.59,NE,43,0.0,0.0,82,0.00,,,0.00,WeatherCatV1.02B3,2013-10-02 09:21:00,
2013-10-02 02:26:00,53.2,47.5,29.59,NE,43,0.0,0.0,81,0.00,,,0.00,WeatherCatV1.02B3,2013-10-02 09:26:00,
2013-10-02 02:31:00,53.1,47.8,29.59,NE,43,0.0,0.0,82,0.00,,,0.00,WeatherCatV1.02B3,2013-10-02 09:31:00,
2013-10-02 02:36:00,53.0,47.7,29.59,NE,43,0.0,0.0,82,0.00,,,0.00,WeatherCatV1.02B3,2013-10-02 09:36:00,
2013-10-02 02:41:00,53.0,47.7,29.59,NE,43,0.0,0.0,82,0.00,,,0.00,WeatherCatV1.02B3,2013-10-02 09:41:00,
2013-10-02 02:46:00,52.9,47.6,29.59,NE,43,0.0,0.0,82,0.00,,,0.00,WeatherCatV1.02B3,2013-10-02 09:46:00,
2013-10-02 02:51:00,52.8,47.5,29.59,NE,43,0.0,0.0,82,0.00,,,0.00,WeatherCatV1.02B3,2013-10-02 09:51:00,
2013-10-02 02:56:00,52.7,47.4,29.59,NE,43,0.0,0.0,82,0.00,,,0.00,WeatherCatV1.02B3,2013-10-02 09:56:00,
2013-10-02 03:01:00,52.6,47.3,29.59,NE,43,0.0,0.0,82,0.00,,,0.00,WeatherCatV1.02B3,2013-10-02 10:01:00,
2013-10-02 03:06:00,52.6,47.3,29.59,NE,43,0.0,0.0,82,0.00,,,0.00,WeatherCatV1.02B3,2013-10-02 10:06:00,
2013-10-02 03:11:00,52.4,47.1,29.59,NE,43,0.0,0.0,82,0.00,,,0.00,WeatherCatV1.02B3,2013-10-02 10:11:00,
2013-10-02 03:16:00,52.4,47.1,29.59,NE,43,0.0,0.0,82,0.00,,,0.00,WeatherCatV1.02B3,2013-10-02 10:16:00,
2013-10-02 03:21:00,52.3,47.0,29.59,NE,43,0.0,0.0,82,0.00,,,0.00,WeatherCatV1.02B3,2013-10-02 10:21:00,
2013-10-02 03:26:00,52.1,46.8,29.59,NE,43,0.0,0.0,82,0.00,,,0.00,WeatherCatV1.02B3,2013-10-02 10:26:00,
2013-10-02 03:31:00,52.0,46.7,29.59,NE,43,0.0,1.0,82,0.00,,,0.00,WeatherCatV1.02B3,2013-10-02 10:31:00,
2013-10-02 03:36:00,51.9,46.9,29.59,NE,43,0.0,0.0,83,0.00,,,0.00,WeatherCatV1.02B3,2013-10-02 10:36:00,
2013-10-02 03:41:00,51.9,46.9,29.59,NE,43,0.0,0.0,83,0.00,,,0.00,WeatherCatV1.02B3,2013-10-02 10:41:00,
2013-10-02 03:46:00,51.9,47.2,29.59,NE,43,0.0,0.0,84,0.00,,,0.00,WeatherCatV1.02B3,2013-10-02 10:46:00,
2013-10-02 03:51:00,52.0,47.6,29.59,NE,43,0.0,0.0,85,0.00,,,0.00,WeatherCatV1.02B3,2013-10-02 10:51:00,
2013-10-02 03:56:00,52.2,47.8,29.59,NE,43,0.0,1.0,85,0.00,,,0.00,WeatherCatV1.02B3,2013-10-02 10:56:00,
2013-10-02 04:01:00,52.4,48.0,29.59,NE,43,0.0,0.0,85,0.00,,,0.00,WeatherCatV1.02B3,2013-10-02 11:01:00,
2013-10-02 04:06:00,52.5,48.1,29.59,NE,43,0.0,0.0,85,0.00,,,0.00,WeatherCatV1.02B3,2013-10-02 11:06:00,
2013-10-02 04:11:00,52.7,48.0,29.59,NE,43,0.0,0.0,84,0.00,,,0.00,WeatherCatV1.02B3,2013-10-02 11:11:00,
2013-10-02 04:16:00,52.8,48.4,29.59,NE,43,0.0,0.0,85,0.00,,,0.00,WeatherCatV1.02B3,2013-10-02 11:16:00,
2013-10-02 04:21:00,53.1,48.7,29.59,ENE,75,0.0,2.0,85,0.00,,,0.00,WeatherCatV1.02B3,2013-10-02 11:21:00,
2013-10-02 04:26:00,53.5,48.8,29.59,NE,47,1.0,3.0,84,0.00,,,0.00,WeatherCatV1.02B3,2013-10-02 11:26:00,
2013-10-02 04:31:00,53.8,48.8,29.59,NNE,15,2.0,2.0,83,0.00,,,0.00,WeatherCatV1.02B3,2013-10-02 11:31:00,
2013-10-02 04:36:00,54.1,49.1,29.59,NE,48,0.0,1.0,83,0.00,,,0.00,WeatherCatV1.02B3,2013-10-02 11:36:00,
2013-10-02 04:42:00,54.4,49.3,29.59,NE,48,0.0,1.0,83,0.00,,,0.00,WeatherCatV1.02B3,2013-10-02 11:42:00,
2013-10-02 04:47:00,54.8,49.7,29.59,NE,52,0.0,2.0,83,0.00,,,0.00,WeatherCatV1.02B3,2013-10-02 11:47:00,
2013-10-02 04:52:00,55.2,50.4,29.59,NE,46,0.0,2.0,84,0.00,,,0.00,WeatherCatV1.02B3,2013-10-02 11:52:00,
2013-10-02 04:57:00,55.5,50.4,29.59,NE,46,0.0,0.0,83,0.00,,,0.00,WeatherCatV1.02B3,2013-10-02 11:57:00,
2013-10-02 05:02:00,55.7,50.6,29.59,ENE,61,0.0,1.0,83,0.00,,,0.00,WeatherCatV1.02B3,2013-10-02 12:02:00,
2013-10-02 05:07:00,56.0,50.9,29.59,NE,53,0.0,0.0,83,0.00,,,0.00,WeatherCatV1.02B3,2013-10-02 12:07:00,
2013-10-02 05:12:00,56.2,51.1,29.59,NE,53,0.0,1.0,83,0.00,,,0.00,WeatherCatV1.02B3,2013-10-02 12:12:00,
2013-10-02 05:17:00,56.5,51.4,29.59,ENE,59,0.0,1.0,83,0.00,,,0.00,WeatherCatV1.02B3,2013-10-02 12:17:00,
2013-10-02 05:22:00,56.7,51.6,29.59,ENE,59,0.0,1.0,83,0.00,,,0.00,WeatherCatV1.02B3,2013-10-02 12:22:00,
2013-10-02 05:27:00,56.7,51.3,29.59,ENE,59,0.0,0.0,82,0.00,,,0.00,WeatherCatV1.02B3,2013-10-02 12:27:00,
2013-10-02 05:32:00,56.8,51.4,29.59,ENE,59,1.0,1.0,82,0.00,,,0.00,WeatherCatV1.02B3,2013-10-02 12:32:00,
2013-10-02 05:37:00,56.8,50.7,29.59,ENE,59,0.0,1.0,80,0.00,,,0.00,WeatherCatV1.02B3,2013-10-02 12:37:00,
2013-10-02 05:42:00,56.8,50.7,29.59,NE,53,0.0,2.0,80,0.00,,,0.00,WeatherCatV1.02B3,2013-10-02 12:42:00,
2013-10-02 05:47:00,56.8,50.4,29.59,NNE,31,0.0,2.0,79,0.00,,,0.00,WeatherCatV1.02B3,2013-10-02 12:47:00,
2013-10-02 05:52:00,56.8,50.4,29.59,NE,36,0.0,2.0,79,0.00,,,0.00,WeatherCatV1.02B3,2013-10-02 12:52:00,
2013-10-02 05:57:00,56.8,50.4,29.59,NE,40,0.0,0.0,79,0.00,,,0.00,WeatherCatV1.02B3,2013-10-02 12:57:00,
2013-10-02 06:02:00,56.8,50.4,29.59,NE,55,0.0,0.0,79,0.00,,,0.00,WeatherCatV1.02B3,2013-10-02 13:02:00,
2013-10-02 06:07:00,56.8,50.4,29.59,NE,55,0.0,0.0,79,0.00,,,0.00,WeatherCatV1.02B3,2013-10-02 13:07:00,
2013-10-02 06:12:00,56.8,50.4,29.59,NE,55,0.0,0.0,79,0.00,,,0.00,WeatherCatV1.02B3,2013-10-02 13:12:00,
2013-10-02 06:17:00,56.8,50.4,29.59,NE,53,0.0,1.0,79,0.00,,,0.00,WeatherCatV1.02B3,2013-10-02 13:17:00,
2013-10-02 06:22:00,56.8,50.4,29.59,NE,39,0.0,2.0,79,0.00,,,0.00,WeatherCatV1.02B3,2013-10-02 13:22:00,
2013-10-02 06:27:00,56.7,50.3,29.59,NE,39,0.0,1.0,79,0.00,,,0.00,WeatherCatV1.02B3,2013-10-02 13:27:00,
2013-10-02 06:32:00,56.7,50.3,29.59,NE,39,0.0,1.0,79,0.00,,,0.00,WeatherCatV1.02B3,2013-10-02 13:32:00,
2013-10-02 06:37:00,56.7,50.3,29.59,NE,39,0.0,0.0,79,0.00,,,0.00,WeatherCatV1.02B3,2013-10-02 13:37:00,
2013-10-02 06:42:00,56.7,50.6,29.59,NE,38,0.0,2.0,80,0.00,,,0.00,WeatherCatV1.02B3,2013-10-02 13:42:00,
2013-10-02 06:47:00,56.7,50.9,29.59,NE,38,0.0,1.0,81,0.00,,,0.00,WeatherCatV1.02B3,2013-10-02 13:47:00,
2013-10-02 06:52:00,56.7,50.6,29.59,NE,38,0.0,1.0,80,0.00,,,0.00,WeatherCatV1.02B3,2013-10-02 13:52:00,
2013-10-02 06:57:00,56.7,50.6,29.59,NE,38,0.0,1.0,80,0.00,,,0.00,WeatherCatV1.02B3,2013-10-02 13:57:00,
2013-10-02 07:02:00,56.7,50.9,29.59,ENE,74,0.0,1.0,81,0.00,,,0.00,WeatherCatV1.02B3,2013-10-02 14:02:00,
2013-10-02 07:07:00,56.7,50.9,29.59,ENE,74,0.0,1.0,81,0.00,,,0.00,WeatherCatV1.02B3,2013-10-02 14:07:00,
2013-10-02 07:12:00,56.7,50.9,29.59,ENE,76,0.0,0.0,81,0.00,,,0.00,WeatherCatV1.02B3,2013-10-02 14:12:00,
2013-10-02 07:17:00,56.7,51.3,29.59,ENE,76,0.0,0.0,82,0.00,,,0.00,WeatherCatV1.02B3,2013-10-02 14:17:00,
2013-10-02 07:22:00,56.8,51.4,29.59,ENE,76,0.0,0.0,82,0.00,,,0.00,WeatherCatV1.02B3,2013-10-02 14:22:00,
2013-10-02 07:27:00,56.9,51.8,29.59,ENE,76,0.0,0.0,83,0.00,,,0.00,WeatherCatV1.02B3,2013-10-02 14:27:00,
2013-10-02 07:32:00,56.9,51.8,29.59,ENE,76,0.0,0.0,83,0.00,,,0.00,WeatherCatV1.02B3,2013-10-02 14:32:00,
2013-10-02 07:37:00,57.0,52.2,29.59,ENE,76,0.0,0.0,84,0.00,,,0.00,WeatherCatV1.02B3,2013-10-02 14:37:00,
2013-10-02 07:42:00,57.1,52.3,29.59,ENE,76,0.0,0.0,84,0.00,,,0.00,WeatherCatV1.02B3,2013-10-02 14:42:00,
2013-10-02 07:47:00,57.2,52.1,29.59,ENE,76,0.0,0.0,83,0.00,,,0.00,WeatherCatV1.02B3,2013-10-02 14:47:00,
2013-10-02 07:52:00,57.4,52.3,29.59,East,80,0.0,0.0,83,0.00,,,0.00,WeatherCatV1.02B3,2013-10-02 14:52:00,
2013-10-02 07:57:00,57.5,52.4,29.59,East,80,0.0,0.0,83,0.00,,,0.00,WeatherCatV1.02B3,2013-10-02 14:57:00,
2013-10-02 08:02:00,57.7,52.6,29.59,East,80,0.0,0.0,83,0.00,,,0.00,WeatherCatV1.02B3,2013-10-02 15:02:00,
2013-10-02 08:07:00,57.9,52.8,29.59,East,80,0.0,0.0,83,0.00,,,0.00,WeatherCatV1.02B3,2013-10-02 15:07:00,
2013-10-02 08:12:00,58.1,53.0,29.59,East,80,0.0,0.0,83,0.00,,,0.00,WeatherCatV1.02B3,2013-10-02 15:12:00,
2013-10-02 08:17:00,58.4,53.3,29.59,East,80,0.0,0.0,83,0.00,,,0.00,WeatherCatV1.02B3,2013-10-02 15:17:00,
2013-10-02 08:22:00,58.7,53.5,29.59,East,80,0.0,0.0,83,0.00,,,0.00,WeatherCatV1.02B3,2013-10-02 15:22:00,
2013-10-02 08:27:00,58.9,53.7,29.59,East,80,0.0,0.0,83,0.00,,,0.00,WeatherCatV1.02B3,2013-10-02 15:27:00,
2013-10-02 08:32:00,59.3,54.1,29.59,East,80,0.0,1.0,83,0.00,,,0.00,WeatherCatV1.02B3,2013-10-02 15:32:00,
2013-10-02 08:33:00,59.3,54.1,29.59,East,80,0.0,0.0,83,0.00,,,0.00,WeatherCatV1.02B3,2013-10-02 15:33:00,
2013-10-02 08:38:00,59.7,54.5,29.59,East,82,0.0,1.0,83,0.00,,,0.00,WeatherCatV1.02B3,2013-10-02 15:38:00,
2013-10-02 08:43:00,60.0,54.8,29.59,East,82,0.0,1.0,83,0.00,,,0.00,WeatherCatV1.02B3,2013-10-02 15:43:00,
2013-10-02 08:48:00,60.5,55.3,29.59,East,83,0.0,1.0,83,0.00,,,0.00,WeatherCatV1.02B3,2013-10-02 15:48:00,
2013-10-02 08:53:00,60.9,55.7,29.59,East,84,0.0,1.0,83,0.00,,,0.00,WeatherCatV1.02B3,2013-10-02 15:53:00,
2013-10-02 08:58:00,61.4,55.9,29.59,ESE,109,0.0,2.0,82,0.00,,,0.00,WeatherCatV1.02B3,2013-10-02 15:58:00,
2013-10-02 09:03:00,61.8,56.2,29.59,SE,126,0.0,1.0,82,0.00,,,0.00,WeatherCatV1.02B3,2013-10-02 16:03:00,
2013-10-02 09:08:00,62.3,56.4,29.59,NE,36,0.0,0.0,81,0.00,,,0.00,WeatherCatV1.02B3,2013-10-02 16:08:00,
2013-10-02 09:13:00,62.7,56.4,29.59,North,355,0.0,1.0,80,0.00,,,0.00,WeatherCatV1.02B3,2013-10-02 16:13:00,
2013-10-02 09:18:00,63.1,56.8,29.59,North,355,0.0,1.0,80,0.00,,,0.00,WeatherCatV1.02B3,2013-10-02 16:18:00,
2013-10-02 09:23:00,63.5,56.9,29.59,North,355,2.0,2.0,79,0.00,,,0.00,WeatherCatV1.02B3,2013-10-02 16:23:00,
2013-10-02 09:28:00,63.8,56.8,29.59,NW,321,0.0,1.0,78,0.00,,,0.00,WeatherCatV1.02B3,2013-10-02 16:28:00,
2013-10-02 09:33:00,64.1,57.1,29.59,WNW,296,1.0,1.0,78,0.00,,,0.00,WeatherCatV1.02B3,2013-10-02 16:33:00,
2013-10-02 09:38:00,64.6,57.6,29.59,WNW,298,1.0,1.0,78,0.00,,,0.00,WeatherCatV1.02B3,2013-10-02 16:38:00,
2013-10-02 09:43:00,65.0,57.6,29.59,NW,307,0.0,1.0,77,0.00,,,0.00,WeatherCatV1.02B3,2013-10-02 16:43:00,
2013-10-02 09:48:00,65.4,57.6,29.59,SW,229,0.0,0.0,76,0.00,,,0.00,WeatherCatV1.02B3,2013-10-02 16:48:00,
2013-10-02 09:53:00,66.0,57.8,29.59,West,275,0.0,1.0,75,0.00,,,0.00,WeatherCatV1.02B3,2013-10-02 16:53:00,
2013-10-02 09:58:00,67.0,57.7,29.59,East,96,0.0,2.0,72,0.00,,,0.00,WeatherCatV1.02B3,2013-10-02 16:58:00,
2013-10-02 10:03:00,67.9,58.1,29.59,West,263,1.0,3.0,71,0.00,,,0.00,WeatherCatV1.02B3,2013-10-02 17:03:00,
2013-10-02 10:08:00,68.7,58.1,29.59,East,82,3.0,3.0,69,0.00,,,0.00,WeatherCatV1.02B3,2013-10-02 17:08:00,
2013-10-02 10:13:00,69.5,58.5,29.59,WNW,298,1.0,1.0,68,0.00,,,0.00,WeatherCatV1.02B3,2013-10-02 17:13:00,
2013-10-02 10:18:00,70.4,58.1,29.59,NE,40,1.0,4.0,65,0.00,,,0.00,WeatherCatV1.02B3,2013-10-02 17:18:00,
2013-10-02 10:23:00,70.9,58.1,29.59,West,271,3.0,3.0,64,0.00,,,0.00,WeatherCatV1.02B3,2013-10-02 17:23:00,
2013-10-02 10:28:00,70.6,57.4,29.59,West,277,2.0,5.0,63,0.00,,,0.00,WeatherCatV1.02B3,2013-10-02 17:28:00,
2013-10-02 10:33:00,70.8,58.0,29.59,SE,134,0.0,5.0,64,0.00,,,0.00,WeatherCatV1.02B3,2013-10-02 17:33:00,
2013-10-02 10:38:00,71.2,57.5,29.59,NNW,343,2.0,4.0,62,0.00,,,0.00,WeatherCatV1.02B3,2013-10-02 17:38:00,
2013-10-02 10:43:00,71.1,57.4,29.59,WSW,257,2.0,5.0,62,0.00,,,0.00,WeatherCatV1.02B3,2013-10-02 17:43:00,
2013-10-02 10:48:00,70.9,57.2,29.59,North,355,0.0,3.0,62,0.00,,,0.00,WeatherCatV1.02B3,2013-10-02 17:48:00,
2013-10-02 10:53:00,71.3,57.1,29.59,SW,231,1.0,3.0,61,0.00,,,0.00,WeatherCatV1.02B3,2013-10-02 17:53:00,
2013-10-02 10:58:00,71.5,57.3,29.59,ENE,71,2.0,3.0,61,0.00,,,0.00,WeatherCatV1.02B3,2013-10-02 17:58:00,
2013-10-02 11:03:00,71.9,57.7,29.59,ESE,118,0.0,3.0,61,0.00,,,0.00,WeatherCatV1.02B3,2013-10-02 18:03:00,
2013-10-02 11:08:00,72.3,57.6,29.59,East,88,1.0,7.0,60,0.00,,,0.00,WeatherCatV1.02B3,2013-10-02 18:08:00,
2013-10-02 11:13:00,73.0,57.8,29.59,NE,51,4.0,6.0,59,0.00,,,0.00,WeatherCatV1.02B3,2013-10-02 18:13:00,
2013-10-02 11:18:00,73.2,58.0,29.59,SSW,202,1.0,1.0,59,0.00,,,0.00,WeatherCatV1.02B3,2013-10-02 18:18:00,
2013-10-02 11:23:00,74.0,58.3,29.59,West,265,0.0,3.0,58,0.00,,,0.00,WeatherCatV1.02B3,2013-10-02 18:23:00,
2013-10-02 11:28:00,74.4,57.7,29.59,NNW,341,1.0,3.0,56,0.00,,,0.00,WeatherCatV1.02B3,2013-10-02 18:28:00,
2013-10-02 11:33:00,74.4,57.7,29.59,NE,47,1.0,3.0,56,0.00,,,0.00,WeatherCatV1.02B3,2013-10-02 18:33:00,
2013-10-02 11:38:00,74.4,57.7,29.59,SW,235,4.0,4.0,56,0.00,,,0.00,WeatherCatV1.02B3,2013-10-02 18:38:00,
2013-10-02 11:43:00,75.0,57.7,29.59,WNW,301,1.0,4.0,55,0.00,,,0.00,WeatherCatV1.02B3,2013-10-02 18:43:00,
2013-10-02 11:48:00,74.6,57.3,29.59,West,261,5.0,8.0,55,0.00,,,0.00,WeatherCatV1.02B3,2013-10-02 18:48:00,
2013-10-02 11:53:00,74.1,57.4,29.59,SW,236,5.0,5.0,56,0.00,,,0.00,WeatherCatV1.02B3,2013-10-02 18:53:00,
2013-10-02 11:58:00,74.4,57.7,29.59,NW,311,1.0,4.0,56,0.00,,,0.00,WeatherCatV1.02B3,2013-10-02 18:58:00,
2013-10-02 12:03:00,74.9,58.1,29.59,WNW,289,1.0,4.0,56,0.00,,,0.00,WeatherCatV1.02B3,2013-10-02 19:03:00,
2013-10-02 12:08:00,75.1,58.3,29.59,ENE,74,1.0,6.0,56,0.00,,,0.00,WeatherCatV1.02B3,2013-10-02 19:08:00,
2013-10-02 12:13:00,74.6,58.3,29.59,WSW,248,9.0,9.0,57,0.00,,,0.00,WeatherCatV1.02B3,2013-10-02 19:13:00,
2013-10-02 12:18:00,73.5,58.3,29.59,NW,304,3.0,6.0,59,0.00,,,0.00,WeatherCatV1.02B3,2013-10-02 19:18:00,
2013-10-02 12:23:00,73.0,57.8,29.59,WSW,249,4.0,6.0,59,0.00,,,0.00,WeatherCatV1.02B3,2013-10-02 19:23:00,
2013-10-02 12:28:00,72.6,57.9,29.59,WNW,282,2.0,3.0,60,0.00,,,0.00,WeatherCatV1.02B3,2013-10-02 19:28:00,
2013-10-02 12:33:00,72.6,58.4,29.59,NE,50,2.0,4.0,61,0.00,,,0.00,WeatherCatV1.02B3,2013-10-02 19:33:00,
2013-10-02 12:38:00,72.7,58.5,29.59,NW,318,0.0,4.0,61,0.00,,,0.00,WeatherCatV1.02B3,2013-10-02 19:38:00,
2013-10-02 12:43:00,72.6,58.8,29.59,NW,317,1.0,3.0,62,0.00,,,0.00,WeatherCatV1.02B3,2013-10-02 19:43:00,
2013-10-02 12:48:00,73.0,58.3,29.59,SW,219,2.0,7.0,60,0.00,,,0.00,WeatherCatV1.02B3,2013-10-02 19:48:00,
2013-10-02 12:53:00,73.7,58.9,29.59,NNW,342,1.0,6.0,60,0.00,,,0.00,WeatherCatV1.02B3,2013-10-02 19:53:00,
2013-10-02 12:58:00,74.1,58.4,29.59,WSW,257,4.0,7.0,58,0.00,,,0.00,WeatherCatV1.02B3,2013-10-02 19:58:00,
2013-10-02 13:03:00,74.2,58.5,29.59,NNW,329,3.0,7.0,58,0.00,,,0.00,WeatherCatV1.02B3,2013-10-02 20:03:00,
2013-10-02 13:08:00,74.4,58.2,29.59,NNW,342,2.0,6.0,57,0.00,,,0.00,WeatherCatV1.02B3,2013-10-02 20:08:00,
2013-10-02 13:13:00,74.3,58.5,29.59,NW,318,1.0,6.0,58,0.00,,,0.00,WeatherCatV1.02B3,2013-10-02 20:13:00,
2013-10-02 13:18:00,73.9,57.7,29.59,West,274,3.0,10.0,57,0.00,,,0.00,WeatherCatV1.02B3,2013-10-02 20:18:00,
2013-10-02 13:23:00,73.7,58.0,29.59,West,263,5.0,7.0,58,0.00,,,0.00,WeatherCatV1.02B3,2013-10-02 20:23:00,
2013-10-02 13:28:00,73.6,57.9,29.59,WSW,239,6.0,9.0,58,0.00,,,0.00,WeatherCatV1.02B3,2013-10-02 20:28:00,
2013-10-02 13:33:00,73.3,57.6,29.59,WNW,301,3.0,5.0,58,0.00,,,0.00,WeatherCatV1.02B3,2013-10-02 20:33:00,
2013-10-02 13:38:00,73.7,58.0,29.59,WNW,289,3.0,6.0,58,0.00,,,0.00,WeatherCatV1.02B3,2013-10-02 20:38:00,
2013-10-02 13:43:00,73.7,58.0,29.59,WSW,240,5.0,8.0,58,0.00,,,0.00,WeatherCatV1.02B3,2013-10-02 20:43:00,
2013-10-02 13:48:00,73.5,58.3,29.59,South,173,0.0,8.0,59,0.00,,,0.00,WeatherCatV1.02B3,2013-10-02 20:48:00,
2013-10-02 13:53:00,73.4,57.7,29.59,WSW,255,4.0,13.0,58,0.00,,,0.00,WeatherCatV1.02B3,2013-10-02 20:53:00,
2013-10-02 13:58:00,73.1,57.9,29.59,NW,325,5.0,5.0,59,0.00,,,0.00,WeatherCatV1.02B3,2013-10-02 20:58:00,
2013-10-02 14:03:00,73.3,58.1,29.59,WSW,254,6.0,8.0,59,0.00,,,0.00,WeatherCatV1.02B3,2013-10-02 21:03:00,
2013-10-02 14:08:00,73.5,58.3,29.59,WSW,248,5.0,9.0,59,0.00,,,0.00,WeatherCatV1.02B3,2013-10-02 21:08:00,
2013-10-02 14:13:00,73.7,58.5,29.59,WNW,283,0.0,5.0,59,0.00,,,0.00,WeatherCatV1.02B3,2013-10-02 21:13:00,
2013-10-02 14:18:00,73.8,58.1,29.59,West,265,6.0,10.0,58,0.00,,,0.00,WeatherCatV1.02B3,2013-10-02 21:18:00,
2013-10-02 14:23:00,73.8,58.1,29.59,WSW,254,1.0,4.0,58,0.00,,,0.00,WeatherCatV1.02B3,2013-10-02 21:23:00,
2013-10-02 14:28:00,74.2,58.5,29.59,WNW,290,1.0,4.0,58,0.00,,,0.00,WeatherCatV1.02B3,2013-10-02 21:28:00,
2013-10-02 14:33:00,74.3,58.5,29.59,WSW,257,4.0,7.0,58,0.00,,,0.00,WeatherCatV1.02B3,2013-10-02 21:33:00,
2013-10-02 14:38:00,74.1,58.4,29.59,WSW,241,7.0,11.0,58,0.00,,,0.00,WeatherCatV1.02B3,2013-10-02 21:38:00,
2013-10-02 14:43:00,73.7,58.5,29.59,West,262,9.0,13.0,59,0.00,,,0.00,WeatherCatV1.02B3,2013-10-02 21:43:00,
2013-10-02 14:48:00,73.7,58.5,29.59,West,279,4.0,9.0,59,0.00,,,0.00,WeatherCatV1.02B3,2013-10-02 21:48:00,
2013-10-02 14:53:00,73.7,58.5,29.59,WSW,255,3.0,7.0,59,0.00,,,0.00,WeatherCatV1.02B3,2013-10-02 21:53:00,
2013-10-02 14:58:00,73.8,58.6,29.59,SW,235,2.0,5.0,59,0.00,,,0.00,WeatherCatV1.02B3,2013-10-02 21:58:00,
2013-10-02 15:03:00,74.0,58.7,29.59,WSW,258,1.0,8.0,59,0.00,,,0.00,WeatherCatV1.02B3,2013-10-02 22:03:00,
2013-10-02 15:08:00,74.1,58.4,29.59,WNW,288,1.0,4.0,58,0.00,,,0.00,WeatherCatV1.02B3,2013-10-02 22:08:00,
2013-10-02 15:13:00,74.3,58.5,29.59,WNW,283,2.0,5.0,58,0.00,,,0.00,WeatherCatV1.02B3,2013-10-02 22:13:00,
2013-10-02 15:18:00,74.2,58.5,29.59,WNW,282,2.0,8.0,58,0.00,,,0.00,WeatherCatV1.02B3,2013-10-02 22:18:00,
2013-10-02 15:23:00,74.0,58.7,29.59,West,272,6.0,8.0,59,0.00,,,0.00,WeatherCatV1.02B3,2013-10-02 22:23:00,
2013-10-02 15:28:00,73.5,58.3,29.59,NW,306,3.0,9.0,59,0.00,,,0.00,WeatherCatV1.02B3,2013-10-02 22:28:00,
2013-10-02 15:33:00,73.2,58.5,29.59,WNW,297,4.0,9.0,60,0.00,,,0.00,WeatherCatV1.02B3,2013-10-02 22:33:00,
2013-10-02 15:38:00,73.1,58.4,29.59,WNW,296,7.0,9.0,60,0.00,,,0.00,WeatherCatV1.02B3,2013-10-02 22:38:00,
2013-10-02 15:43:00,73.0,58.3,29.59,WSW,254,5.0,6.0,60,0.00,,,0.00,WeatherCatV1.02B3,2013-10-02 22:43:00,
2013-10-02 15:48:00,72.9,58.6,29.59,WSW,238,3.0,6.0,61,0.00,,,0.00,WeatherCatV1.02B3,2013-10-02 22:48:00,
2013-10-02 15:53:00,73.0,58.7,29.59,West,278,1.0,7.0,61,0.00,,,0.00,WeatherCatV1.02B3,2013-10-02 22:53:00,
2013-10-02 15:58:00,73.1,58.4,29.59,South,171,1.0,7.0,60,0.00,,,0.00,WeatherCatV1.02B3,2013-10-02 22:58:00,
2013-10-02 16:03:00,72.8,58.1,29.59,West,269,5.0,8.0,60,0.00,,,0.00,WeatherCatV1.02B3,2013-10-02 23:03:00,
2013-10-02 16:08:00,72.2,58.0,29.59,WNW,303,2.0,7.0,61,0.00,,,0.00,WeatherCatV1.02B3,2013-10-02 23:08:00,
2013-10-02 16:13:00,72.2,58.4,29.59,SW,235,2.0,4.0,62,0.00,,,0.00,WeatherCatV1.02B3,2013-10-02 23:13:00,
2013-10-02 16:18:00,72.4,58.6,29.59,West,276,1.0,2.0,62,0.00,,,0.00,WeatherCatV1.02B3,2013-10-02 23:18:00,
2013-10-02 16:23:00,72.6,58.4,29.59,WNW,300,3.0,5.0,61,0.00,,,0.00,WeatherCatV1.02B3,2013-10-02 23:23:00,
2013-10-02 16:28:00,72.8,58.6,29.59,West,273,2.0,9.0,61,0.00,,,0.00,WeatherCatV1.02B3,2013-10-02 23:28:00,
2013-10-02 16:33:00,72.4,58.6,29.59,WSW,242,2.0,5.0,62,0.00,,,0.00,WeatherCatV1.02B3,2013-10-02 23:33:00,
2013-10-02 16:38:00,72.2,58.4,29.59,West,263,4.0,6.0,62,0.00,,,0.00,WeatherCatV1.02B3,2013-10-02 23:38:00,
2013-10-02 16:43:00,72.0,58.7,29.59,West,271,2.0,5.0,63,0.00,,,0.00,WeatherCatV1.02B3,2013-10-02 23:43:00,
2013-10-02 16:48:00,72.1,58.8,29.59,West,265,3.0,6.0,63,0.00,,,0.00,WeatherCatV1.02B3,2013-10-02 23:48:00,
2013-10-02 16:49:00,72.1,58.8,29.59,WNW,284,3.0,6.0,63,0.00,,,0.00,WeatherCatV1.02B3,2013-10-02 23:49:00,
2013-10-02 16:54:00,72.0,58.7,29.59,West,268,3.0,8.0,63,0.00,,,0.00,WeatherCatV1.02B3,2013-10-02 23:54:00,
2013-10-02 16:59:00,71.8,58.5,29.59,WNW,284,2.0,6.0,63,0.00,,,0.00,WeatherCatV1.02B3,2013-10-02 23:59:00,
2013-10-02 17:04:00,71.4,58.6,29.59,WNW,297,2.0,5.0,64,0.00,,,0.00,WeatherCatV1.02B3,2013-10-03 00:04:00,
2013-10-02 17:09:00,71.2,58.8,29.59,WSW,238,2.0,6.0,65,0.00,,,0.00,WeatherCatV1.02B3,2013-10-03 00:09:00,
2013-10-02 17:14:00,71.1,58.7,29.59,WNW,287,2.0,4.0,65,0.00,,,0.00,WeatherCatV1.02B3,2013-10-03 00:14:00,
2013-10-02 17:19:00,70.9,58.5,29.59,West,267,4.0,7.0,65,0.00,,,0.00,WeatherCatV1.02B3,2013-10-03 00:19:00,
2013-10-02 17:24:00,70.6,58.7,29.59,WSW,247,6.0,6.0,66,0.00,,,0.00,WeatherCatV1.02B3,2013-10-03 00:24:00,
2013-10-02 17:29:00,70.2,58.3,29.59,WNW,294,3.0,5.0,66,0.00,,,0.00,WeatherCatV1.02B3,2013-10-03 00:29:00,
2013-10-02 17:34:00,69.9,58.4,29.59,WSW,246,2.0,5.0,67,0.00,,,0.00,WeatherCatV1.02B3,2013-10-03 00:34:00,
2013-10-02 17:39:00,69.7,58.2,29.59,WSW,250,3.0,5.0,67,0.00,,,0.00,WeatherCatV1.02B3,2013-10-03 00:39:00,
2013-10-02 17:44:00,69.3,57.9,29.59,WSW,252,1.0,9.0,67,0.00,,,0.00,WeatherCatV1.02B3,2013-10-03 00:44:00,
2013-10-02 17:49:00,69.0,58.0,29.59,West,273,4.0,4.0,68,0.00,,,0.00,WeatherCatV1.02B3,2013-10-03 00:49:00,
2013-10-02 17:54:00,68.9,57.9,29.59,West,268,2.0,4.0,68,0.00,,,0.00,WeatherCatV1.02B3,2013-10-03 00:54:00,
2013-10-02 17:59:00,68.5,57.9,29.59,West,266,3.0,4.0,69,0.00,,,0.00,WeatherCatV1.02B3,2013-10-03 00:59:00,
2013-10-02 18:04:00,68.2,58.0,29.59,West,281,3.0,3.0,70,0.00,,,0.00,WeatherCatV1.02B3,2013-10-03 01:04:00,
2013-10-02 18:09:00,67.7,57.6,29.59,West,273,3.0,5.0,70,0.00,,,0.00,WeatherCatV1.02B3,2013-10-03 01:09:00,
2013-10-02 18:14:00,67.3,57.6,29.59,WNW,290,1.0,2.0,71,0.00,,,0.00,WeatherCatV1.02B3,2013-10-03 01:14:00,
2013-10-02 18:19:00,66.9,57.6,29.59,WNW,303,1.0,3.0,72,0.00,,,0.00,WeatherCatV1.02B3,2013-10-03 01:19:00,
2013-10-02 18:24:00,66.6,57.7,29.59,WSW,256,3.0,3.0,73,0.00,,,0.00,WeatherCatV1.02B3,2013-10-03 01:24:00,
2013-10-02 18:29:00,66.1,57.2,29.59,WNW,283,1.0,4.0,73,0.00,,,0.00,WeatherCatV1.02B3,2013-10-03 01:29:00,
2013-10-02 18:34:00,65.7,57.2,29.59,WNW,288,0.0,2.0,74,0.00,,,0.00,WeatherCatV1.02B3,2013-10-03 01:34:00,
2013-10-02 18:39:00,65.5,57.0,29.59,West,263,0.0,3.0,74,0.00,,,0.00,WeatherCatV1.02B3,2013-10-03 01:39:00,
2013-10-02 18:44:00,65.2,57.1,29.59,West,263,2.0,5.0,75,0.00,,,0.00,WeatherCatV1.02B3,2013-10-03 01:44:00,
2013-10-02 18:49:00,64.8,57.0,29.59,West,264,2.0,5.0,76,0.00,,,0.00,WeatherCatV1.02B3,2013-10-03 01:49:00,
2013-10-02 18:54:00,64.3,56.9,29.59,West,270,3.0,6.0,77,0.00,,,0.00,WeatherCatV1.02B3,2013-10-03 01:54:00,
2013-10-02 18:59:00,63.9,56.5,29.59,WSW,242,2.0,3.0,77,0.00,,,0.00,WeatherCatV1.02B3,2013-10-03 01:59:00,
2013-10-02 19:04:00,63.5,56.5,29.59,West,277,3.0,3.0,78,0.00,,,0.00,WeatherCatV1.02B3,2013-10-03 02:04:00,
2013-10-02 19:06:00,63.3,56.3,29.59,WNW,286,2.0,4.0,78,0.00,,,0.00,WeatherCatV1.02B3,2013-10-03 02:06:00,
2013-10-02 19:11:00,63.0,56.4,29.59,WSW,257,2.0,3.0,79,0.00,,,0.00,WeatherCatV1.02B3,2013-10-03 02:11:00,
2013-10-02 19:16:00,62.6,56.3,29.59,West,262,0.0,4.0,80,0.00,,,0.00,WeatherCatV1.02B3,2013-10-03 02:16:00,
2013-10-02 19:21:00,62.4,56.5,29.59,WSW,248,4.0,5.0,81,0.00,,,0.00,WeatherCatV1.02B3,2013-10-03 02:21:00,
2013-10-02 19:26:00,62.2,56.3,29.59,West,267,2.0,3.0,81,0.00,,,0.00,WeatherCatV1.02B3,2013-10-03 02:26:00,
2013-10-02 19:31:00,62.0,56.1,29.59,West,267,1.0,2.0,81,0.00,,,0.00,WeatherCatV1.02B3,2013-10-03 02:31:00,
2013-10-02 19:36:00,61.8,55.9,29.59,West,263,1.0,1.0,81,0.00,,,0.00,WeatherCatV1.02B3,2013-10-03 02:36:00,
2013-10-02 19:41:00,61.6,55.7,29.59,West,263,0.0,0.0,81,0.00,,,0.00,WeatherCatV1.02B3,2013-10-03 02:41:00,
2013-10-02 19:46:00,61.5,55.6,29.59,West,263,0.0,0.0,81,0.00,,,0.00,WeatherCatV1.02B3,2013-10-03 02:46:00,
2013-10-02 19:51:00,61.4,55.5,29.59,West,263,0.0,0.0,81,0.00,,,0.00,WeatherCatV1.02B3,2013-10-03 02:51:00,
2013-10-02 19:56:00,61.3,55.4,29.59,West,263,0.0,0.0,81,0.00,,,0.00,WeatherCatV1.02B3,2013-10-03 02:56:00,
2013-10-02 20:01:00,61.1,55.2,29.59,West,263,0.0,0.0,81,0.00,,,0.00,WeatherCatV1.02B3,2013-10-03 03:01:00,
2013-10-02 20:06:00,60.9,55.0,29.59,West,263,0.0,0.0,81,0.00,,,0.00,WeatherCatV1.02B3,2013-10-03 03:06:00,
2013-10-02 20:11:00,60.7,54.8,29.59,West,263,0.0,0.0,81,0.00,,,0.00,WeatherCatV1.02B3,2013-10-03 03:11:00,
2013-10-02 20:16:00,60.5,54.6,29.59,West,263,0.0,0.0,81,0.00,,,0.00,WeatherCatV1.02B3,2013-10-03 03:16:00,
2013-10-02 20:21:00,60.2,54.3,29.59,West,263,0.0,0.0,81,0.00,,,0.00,WeatherCatV1.02B3,2013-10-03 03:21:00,
2013-10-02 20:26:00,60.0,54.1,29.59,West,263,0.0,0.0,81,0.00,,,0.00,WeatherCatV1.02B3,2013-10-03 03:26:00,
2013-10-02 20:31:00,59.8,54.0,29.59,West,263,0.0,0.0,81,0.00,,,0.00,WeatherCatV1.02B3,2013-10-03 03:31:00,
2013-10-02 20:36:00,59.5,53.7,29.59,West,263,0.0,0.0,81,0.00,,,0.00,WeatherCatV1.02B3,2013-10-03 03:36:00,
2013-10-02 20:41:00,59.2,53.7,29.59,West,263,0.0,0.0,82,0.00,,,0.00,WeatherCatV1.02B3,2013-10-03 03:41:00,
2013-10-02 20:46:00,59.0,53.2,29.59,West,263,0.0,0.0,81,0.00,,,0.00,WeatherCatV1.02B3,2013-10-03 03:46:00,
2013-10-02 20:51:00,58.9,53.4,29.59,West,263,0.0,0.0,82,0.00,,,0.00,WeatherCatV1.02B3,2013-10-03 03:51:00,
2013-10-02 20:56:00,58.6,53.1,29.59,West,263,0.0,0.0,82,0.00,,,0.00,WeatherCatV1.02B3,2013-10-03 03:56:00,
2013-10-02 21:01:00,58.4,53.3,29.59,West,263,0.0,0.0,83,0.00,,,0.00,WeatherCatV1.02B3,2013-10-03 04:01:00,
2013-10-02 21:06:00,58.2,53.1,29.59,West,263,0.0,0.0,83,0.00,,,0.00,WeatherCatV1.02B3,2013-10-03 04:06:00,
2013-10-02 21:11:00,58.0,52.9,29.59,West,263,0.0,0.0,83,0.00,,,0.00,WeatherCatV1.02B3,2013-10-03 04:11:00,
2013-10-02 21:16:00,57.8,52.7,29.59,West,263,0.0,0.0,83,0.00,,,0.00,WeatherCatV1.02B3,2013-10-03 04:16:00,
2013-10-02 21:21:00,57.5,52.4,29.59,West,263,0.0,0.0,83,0.00,,,0.00,WeatherCatV1.02B3,2013-10-03 04:21:00,
2013-10-02 21:26:00,57.3,52.2,29.59,West,263,0.0,0.0,83,0.00,,,0.00,WeatherCatV1.02B3,2013-10-03 04:26:00,
2013-10-02 21:31:00,57.2,52.1,29.59,West,263,0.0,0.0,83,0.00,,,0.00,WeatherCatV1.02B3,2013-10-03 04:31:00,
2013-10-02 21:36:00,56.9,52.1,29.59,West,263,0.0,0.0,84,0.00,,,0.00,WeatherCatV1.02B3,2013-10-03 04:36:00,
2013-10-02 21:41:00,56.6,51.8,29.59,West,263,0.0,0.0,84,0.00,,,0.00,WeatherCatV1.02B3,2013-10-03 04:41:00,
2013-10-02 21:46:00,56.5,51.7,29.59,West,263,0.0,0.0,84,0.00,,,0.00,WeatherCatV1.02B3,2013-10-03 04:46:00,
2013-10-02 21:51:00,56.3,51.5,29.59,West,263,0.0,0.0,84,0.00,,,0.00,WeatherCatV1.02B3,2013-10-03 04:51:00,
2013-10-02 21:56:00,56.2,51.7,29.59,West,263,0.0,0.0,85,0.00,,,0.00,WeatherCatV1.02B3,2013-10-03 04:56:00,
2013-10-02 22:01:00,56.0,51.6,29.59,West,263,0.0,0.0,85,0.00,,,0.00,WeatherCatV1.02B3,2013-10-03 05:01:00,
2013-10-02 22:06:00,55.9,51.8,29.59,West,263,0.0,0.0,86,0.00,,,0.00,WeatherCatV1.02B3,2013-10-03 05:06:00,
2013-10-02 22:11:00,55.7,51.6,29.59,NW,325,0.0,0.0,86,0.00,,,0.00,WeatherCatV1.02B3,2013-10-03 05:11:00,
2013-10-02 22:16:00,55.8,52.0,29.59,NW,325,0.0,0.0,87,0.00,,,0.00,WeatherCatV1.02B3,2013-10-03 05:16:00,
2013-10-02 22:21:00,55.8,52.0,29.59,NW,325,0.0,0.0,87,0.00,,,0.00,WeatherCatV1.02B3,2013-10-03 05:21:00,
2013-10-02 22:26:00,55.7,51.9,29.59,NW,325,0.0,0.0,87,0.00,,,0.00,WeatherCatV1.02B3,2013-10-03 05:26:00,
2013-10-02 22:31:00,55.7,52.2,29.59,North,9,1.0,2.0,88,0.00,,,0.00,WeatherCatV1.02B3,2013-10-03 05:31:00,
2013-10-02 22:36:00,55.6,52.1,29.59,NNE,13,1.0,2.0,88,0.00,,,0.00,WeatherCatV1.02B3,2013-10-03 05:36:00,
2013-10-02 22:41:00,55.7,52.2,29.59,NE,44,0.0,2.0,88,0.00,,,0.00,WeatherCatV1.02B3,2013-10-03 05:41:00,
2013-10-02 22:46:00,55.7,52.2,29.59,NE,44,0.0,0.0,88,0.00,,,0.00,WeatherCatV1.02B3,2013-10-03 05:46:00,
2013-10-02 22:51:00,55.6,52.1,29.59,North,10,0.0,2.0,88,0.00,,,0.00,WeatherCatV1.02B3,2013-10-03 05:51:00,
2013-10-02 22:56:00,55.4,52.2,29.59,North,10,1.0,1.0,89,0.00,,,0.00,WeatherCatV1.02B3,2013-10-03 05:56:00,
2013-10-02 23:01:00,55.3,52.1,29.59,North,5,0.0,0.0,89,0.00,,,0.00,WeatherCatV1.02B3,2013-10-03 06:01:00,
2013-10-02 23:06:00,55.2,52.0,29.59,NE,56,0.0,2.0,89,0.00,,,0.00,WeatherCatV1.02B3,2013-10-03 06:06:00,
2013-10-02 23:11:00,55.1,51.9,29.59,ENE,60,0.0,0.0,89,0.00,,,0.00,WeatherCatV1.02B3,2013-10-03 06:11:00,
2013-10-02 23:16:00,55.0,51.5,29.59,ENE,60,0.0,0.0,88,0.00,,,0.00,WeatherCatV1.02B3,2013-10-03 06:16:00,
2013-10-02 23:21:00,54.8,51.3,29.59,ENE,60,0.0,0.0,88,0.00,,,0.00,WeatherCatV1.02B3,2013-10-03 06:21:00,
2013-10-02 23:27:00,54.4,50.9,29.59,ENE,60,0.0,1.0,88,0.00,,,0.00,WeatherCatV1.02B3,2013-10-03 06:27:00,
2013-10-02 23:32:00,54.1,50.6,29.59,ENE,60,0.0,1.0,88,0.00,,,0.00,WeatherCatV1.02B3,2013-10-03 06:32:00,
2013-10-02 23:37:00,53.9,50.4,29.59,ENE,60,0.0,1.0,88,0.00,,,0.00,WeatherCatV1.02B3,2013-10-03 06:37:00,
2013-10-02 23:42:00,53.8,50.3,29.59,ENE,60,0.0,0.0,88,0.00,,,0.00,WeatherCatV1.02B3,2013-10-03 06:42:00,
2013-10-02 23:47:00,53.5,50.0,29.59,ENE,60,0.0,2.0,88,0.00,,,0.00,WeatherCatV1.02B3,2013-10-03 06:47:00,
2013-10-02 23:52:00,53.3,49.8,29.59,ENE,60,0.0,0.0,88,0.00,,,0.00,WeatherCatV1.02B3,2013-10-03 06:52:00,
2013-10-02 23:57:00,53.3,50.1,29.59,ENE,60,0.0,0.0,89,0.00,,,0.00,WeatherCatV1.02B3,2013-10-03 06:57:00,